Main page
METAR-TAF:

METAR-TAF

Airports :

Hong Kong, China

Hong Kong International Airport

latitude: 22-19N, longitude: 113-55E, elevation: 9 m

Current weather observation

The report was made 19 minutes ago, at 10:00 UTC
Wind 9 kt from the East
Temperature 29°C
Humidity 52%
Pressure 1007 hPa
Visibility 10 km or more
no clouds below 1500 m and no cumulonimbus

METAR: VHHH 281000Z 10009KT CAVOK 29/18 Q1007 NOSIG

Time: 18:19 (10:19 UTC)

Forecast

The report was made 5 hours and 19 minutes ago, at 05:00 UTC
Forecast valid from 28 at 06 UTC to 29 at 12 UTC
Wind 10 kt from the West
Visibility: 9000 m
Few clouds at a height of 3500 ft
Becoming
from 28 at 09 UTC to 28 at 11 UTC
Wind 10 kt from the East
Temporary
from 28 at 18 UTC to 29 at 09 UTC
Wind 15 kt from the East with gusts up to 25 kt

TAF: VHHH 280500Z 2806/2912 27010KT 9000 FEW035 TX30/2806Z TX29/2906Z TN25/2823Z BECMG 2809/2811 09010KT TEMPO 2818/2909 08015G25KT

Weather observations and forecasts of more than 4000 airports (METAR and TAF reports).

The available stations are represented by yellow and red dots on the map.

Hover mouse over dot to see the name of the station.

Then click to see weather observations and forecasts.

To change the map : click on the green buttons with a black cross to zoom in, on the green button with a dash to zoom out, or on the green arrows for adjacent maps.


METAR-TAF: